American Railcar Industries (ARII) Latest Bloomsberg Price


Mffais Ranking #868 Overall / #2 Industry
Industry: Railroad Rolling Stock

Number of Companies: 80 (Ranking #1904 Overall/#4 Industry)
Inflow: $ 10,820 (K) (Ranking #1971 Overall/#4 Industry)
Outflow: $ -10,042 (K)
Mffais Flow: $ 778 (K) (Ranking #868 Overall/#2 Industry)


Receive a FREE weekly executive review of stocks moving into the top 10, taking the top industy spot or moving up within their industry. Sent directly to your Inbox every Saturday. Sign up today and get last week's review immediately sent to you.

We value and respect your privacy. Please read our Terms and Conditions which states our firm commitment to your privacy. Your email address will not be shared with a third party, nor will it be sold or used for purposes other than subscription for the weekly review.

Owner CPOR Shares Action Qty Chg Invested (K) Total Current Value (K)
New Amsterdam Partners Llc Ny 2016-09-30 91,316 New Holding 91,316 $ 3,536 $ 3,536
James Investment Research Inc 2016-09-30 192,530 Added More 53,550 $ 2,073 $ 7,456
Livforsakringsbolaget Skandia Omsesidigt 2016-09-30 33,100 Added More 27,100 $ 1,049 $ 1,281
Peak6 Investments L P 2016-09-30 34,100 Added More 22,300 $ 863 $ 1,320
Bridgeway Capital Management Inc 2016-09-30 44,900 Added More 14,000 $ 542 $ 1,738
Quadrature Capital Ltd 2016-09-30 11,296 New Holding 11,296 $ 437 $ 437
Her Majesty The Queen In Right Of The Province Of Alberta As 2016-09-30 8,500 New Holding 8,500 $ 329 $ 329
Northern Trust Corp 2016-09-30 145,137 Added More 6,267 $ 242 $ 5,621
Ahl Partners Llp 2016-09-30 6,139 New Holding 6,139 $ 237 $ 237
Amp Capital Investors Ltd 2016-09-30 6,063 New Holding 6,063 $ 234 $ 234
Hutchin Hill Capital Lp 2016-09-30 26,300 Added More 5,515 $ 213 $ 1,018
Gamco Investors Inc Et Al 2016-09-30 5,000 New Holding 5,000 $ 193 $ 193
North Point Portfolio Managers Corp Oh 2016-09-30 4,900 New Holding 4,900 $ 189 $ 189
Kernodle Katon Asset Management Group Llc 2016-09-30 4,732 Added More 4,532 $ 175 $ 183
Acrospire Investment Management Llc 2016-09-30 3,100 New Holding 3,100 $ 120 $ 120
Sg Americas Securities Llc 2016-09-30 2,720 New Holding 2,720 $ 105 $ 105
Cutler Group Lp 2016-09-30 6,886 Added More 2,686 $ 104 $ 266
Dimensional Fund Advisors Lp 2016-09-30 1,390,353 Added More 1,202 $ 46 $ 53,848
Aperio Group Llc 2016-09-30 13,451 Added More 1,034 $ 40 $ 520
Clinton Group Inc 2016-09-30 16,008 Added More 848 $ 32 $ 619
Pnc Financial Services Group Inc 2016-09-30 16,915 Added More 368 $ 14 $ 655
Next Financial Group Inc 2016-09-30 1,340 Added More 300 $ 11 $ 51
California State Teachers Retirement System 2016-09-30 16,460 Added More 200 $ 7 $ 637
Ladenburg Thalmann Financial Services Inc 2016-09-30 6,545 Added More 200 $ 7 $ 253
Rhumbline Advisers 2016-09-30 19,301 Added More 110 $ 4 $ 747
Rational Advisors Llc 2016-09-30 3,200 Added More 100 $ 3 $ 123
Denali Advisors Llc 2016-09-30 35 New Holding 35 $ 1 $ 1
American International Group Inc 2016-09-30 4,470 Added More 6 $ 0 $ 173
Teton Advisors Inc 2016-09-30 9,292 No Change 0 $ 0 $ 359
Fifth Third Bancorp 2016-09-30 160 No Change 0 $ 0 $ 6
Pinnacle Associates Ltd 2016-09-30 9,950 No Change 0 $ 0 $ 385
New York State Common Retirement Fund 2016-09-30 8,700 No Change 0 $ 0 $ 336
Royce Associates Lp 2016-09-30 189,100 No Change 0 $ 0 $ 7,323
Icahn Carl C 2016-09-30 11,871,268 No Change 0 $ 0 $ 459,774
Teachers Advisors Inc 2016-09-30 12,464 No Change 0 $ 0 $ 482
Smithfield Trust Co 2016-09-30 2,610 No Change 0 $ 0 $ 101
Enterprise Financial Services Corp 2016-09-30 42 No Change 0 $ 0 $ 1
Nationwide Fund Advisors 2016-09-30 8,910 No Change 0 $ 0 $ 345
Massmutual Trust Co Fsb Adv 2016-06-30 100 No Change 0 $ 0 $ 3
North Star Investment Management Corp 2016-09-30 200 No Change 0 $ 0 $ 7
Zurcher Kantonalbank Zurich Cantonalbank 2016-09-30 220 No Change 0 $ 0 $ 8
Creative Planning 2016-09-30 900 No Change 0 $ 0 $ 34
Vantage Investment Advisors Llc 2016-09-30 56 No Change 0 $ 0 $ 2
Krilogy Financial Llc 2016-09-30 150 No Change 0 $ 0 $ 5
Cribstone Capital Management Llc 2016-09-30 722 No Change 0 $ 0 $ 27
Advisor Group Inc 2016-09-30 473 No Change 0 $ 0 $ 18
Plante Moran Financial Advisors Llc 2016-09-30 0 Sold All -5 $ -0 $ 0
Invictus Rg 2016-09-30 0 Sold All -81 $ -3 $ 0
Legal General Group Plc 2016-09-30 1,191 Sold Some -196 $ -7 $ 46
Ifp Advisors Inc 2016-09-30 2,706 Sold Some -301 $ -11 $ 104
Central Trust Co 2016-09-30 290 Sold Some -385 $ -14 $ 11
Mitsubishi Ufj Kokusai Asset Management Co Ltd 2016-09-30 400 Sold Some -400 $ -15 $ 15
Blackrock Inc 2016-09-30 2,452 Sold Some -400 $ -15 $ 94
Parametric Portfolio Associates Llc 2016-09-30 20,004 Sold Some -598 $ -23 $ 774
Tower Research Capital Llc Trc 2016-09-30 0 Sold All -834 $ -32 $ 0
Dekabank Deutsche Girozentrale 2016-09-30 0 Sold All -926 $ -35 $ 0
Swiss National Bank 2016-09-30 13,000 Sold Some -1,200 $ -46 $ 503
Teacher Retirement System Of Texas 2016-09-30 0 Sold All -1,245 $ -48 $ 0
Us Bancorp De 2016-09-30 190 Sold Some -1,450 $ -56 $ 7
Afam Capital Inc 2016-09-30 64,836 Sold Some -1,465 $ -56 $ 2,511
Blackrock Investment Management Llc 2016-09-30 33,259 Sold Some -1,489 $ -57 $ 1,288
Msi Financial Services Inc 2016-09-30 10,032 Sold Some -1,640 $ -63 $ 388
Fiera Capital Corp 2016-09-30 55,400 Sold Some -2,200 $ -85 $ 2,145
Guggenheim Capital Llc 2016-09-30 32,461 Sold Some -2,272 $ -87 $ 1,257
Horizon Kinetics Llc 2016-09-30 94,656 Sold Some -2,512 $ -97 $ 3,666
Commonwealth Equity Services Inc 2016-09-30 15,038 Sold Some -3,233 $ -125 $ 582
Walleye Trading Llc 2016-09-30 3,100 Sold Some -5,800 $ -224 $ 120
Grt Capital Partners L L C 2016-09-30 0 Sold All -6,299 $ -243 $ 0
Cambridge Investment Research Advisors Inc 2016-09-30 0 Sold All -6,772 $ -262 $ 0
White Pine Capital Llc 2016-09-30 10,075 Sold Some -7,100 $ -274 $ 390
Comerica Bank 2016-09-30 22,539 Sold Some -7,342 $ -284 $ 872
Vicus Capital 2016-09-30 0 Sold All -8,982 $ -347 $ 0
Cibc World Markets Inc 2016-09-30 0 Sold All -9,900 $ -383 $ 0
Alps Advisors Inc 2016-09-30 0 Sold All -9,983 $ -386 $ 0
Nisa Investment Advisors Llc 2016-09-30 0 Sold All -10,000 $ -387 $ 0
Laurel Grove Capital Llc 2016-09-30 0 Sold All -10,500 $ -406 $ 0
Kbc Group Nv 2016-09-30 41,061 Sold Some -11,967 $ -463 $ 1,590
Laurion Capital Management Lp 2016-09-30 25,046 Sold Some -24,954 $ -966 $ 970
Gotham Asset Management Llc 2016-09-30 28,711 Sold Some -45,145 $ -1,748 $ 1,111
Brandywine Global Investment Management Llc 2016-09-30 0 Sold All -71,716 $ -2,777 $ 0